Time;durP1;ratioP1;P1;durP2;ratioP2;P2;SDS_P1;SDS_P2;PMS_P1;PMS_P2;Temp;Humidity;BMP_temperature;BMP_pressure;BME280_temperature;BME280_humidity;BME280_pressure;Samples;Min_cycle;Max_cycle;Signal;HPM_P1;HPM_P2
2021/11/05 00:01:36;;;;;;;5.82;2.45;;;15.60;90.80;;;;;;4225165;28;20135;-57
2021/11/05 00:03:58;;;;;;;2.30;1.80;;;15.60;90.80;;;;;;4224775;28;20073;-56
2021/11/05 00:06:21;;;;;;;4.35;2.20;;;15.60;91.10;;;;;;4224231;28;20043;-57
2021/11/05 00:08:42;;;;;;;2.05;1.95;;;15.50;90.70;;;;;;4207362;28;20125;-57
2021/11/05 00:11:06;;;;;;;2.08;1.60;;;15.50;90.80;;;;;;4203347;28;20100;-56
2021/11/05 00:13:28;;;;;;;3.45;2.22;;;15.50;90.70;;;;;;4208471;28;20048;-57
2021/11/05 00:15:50;;;;;;;4.22;1.70;;;15.50;90.90;;;;;;4208177;28;20485;-57
2021/11/05 00:18:12;;;;;;;1.98;1.50;;;15.50;90.80;;;;;;4224292;28;20146;-57
2021/11/05 00:20:34;;;;;;;2.58;1.80;;;15.50;90.80;;;;;;4224606;28;20063;-57
2021/11/05 00:22:57;;;;;;;1.90;1.20;;;15.50;90.90;;;;;;4224359;28;20702;-56
2021/11/05 00:25:19;;;;;;;5.53;1.50;;;15.50;90.80;;;;;;4224479;28;20035;-58
2021/11/05 00:27:43;;;;;;;3.88;1.65;;;15.50;90.90;;;;;;4224607;28;20043;-56
2021/11/05 00:30:06;;;;;;;1.85;1.45;;;15.50;90.80;;;;;;4224278;28;20059;-55
2021/11/05 00:32:28;;;;;;;2.05;1.48;;;15.40;90.90;;;;;;4224386;28;20055;-56
2021/11/05 00:34:51;;;;;;;2.63;1.92;;;15.40;90.90;;;;;;4224317;28;20054;-57
2021/11/05 00:37:12;;;;;;;1.88;1.52;;;15.40;91.00;;;;;;4224462;28;20059;-56
2021/11/05 00:39:35;;;;;;;1.30;1.20;;;15.40;91.00;;;;;;4208964;28;20601;-56
2021/11/05 00:41:58;;;;;;;2.03;1.80;;;15.40;91.00;;;;;;4224100;28;20055;-57
2021/11/05 00:44:22;;;;;;;1.90;1.80;;;15.40;91.00;;;;;;4223824;28;20059;-56
2021/11/05 00:46:44;;;;;;;1.88;1.77;;;15.40;90.90;;;;;;4224057;28;20058;-53
2021/11/05 00:49:06;;;;;;;1.92;1.73;;;15.40;91.00;;;;;;4224386;28;20040;-57
2021/11/05 00:51:28;;;;;;;2.35;1.80;;;15.40;91.10;;;;;;4224304;28;20054;-56
2021/11/05 00:53:51;;;;;;;2.63;1.83;;;15.40;91.20;;;;;;4224024;28;20082;-55
2021/11/05 00:56:13;;;;;;;1.90;1.70;;;15.40;91.20;;;;;;4224451;28;20104;-57
2021/11/05 00:58:35;;;;;;;2.28;1.70;;;15.40;91.70;;;;;;4227332;28;20497;-57
2021/11/05 01:00:58;;;;;;;3.20;2.55;;;15.30;91.40;;;;;;4227634;28;20052;-56
2021/11/05 01:03:20;;;;;;;1.92;1.80;;;15.30;91.30;;;;;;4227939;28;20144;-56
2021/11/05 01:05:42;;;;;;;2.47;1.73;;;15.30;91.80;;;;;;4227310;28;20035;-57
2021/11/05 01:08:06;;;;;;;1.77;1.65;;;15.30;91.50;;;;;;4227817;28;20051;-55
2021/11/05 01:10:28;;;;;;;2.15;1.63;;;15.30;91.50;;;;;;4227610;28;20098;-57
2021/11/05 01:12:50;;;;;;;1.63;1.52;;;15.30;91.90;;;;;;4227650;28;20054;-57
2021/11/05 01:15:14;;;;;;;2.67;1.70;;;15.30;91.60;;;;;;4227390;28;20527;-58
2021/11/05 01:17:38;;;;;;;1.67;1.58;;;15.30;91.70;;;;;;4227347;28;20105;-57
2021/11/05 01:19:59;;;;;;;1.75;1.63;;;15.30;91.50;;;;;;4227296;28;20051;-57
2021/11/05 01:22:22;;;;;;;1.67;1.35;;;15.30;91.60;;;;;;4227563;28;20055;-56
2021/11/05 01:24:44;;;;;;;1.30;1.20;;;15.30;91.60;;;;;;4227706;28;20069;-56
2021/11/05 01:27:06;;;;;;;3.60;1.75;;;15.30;91.60;;;;;;4227096;28;20059;-55
2021/11/05 01:29:28;;;;;;;1.42;1.33;;;15.20;91.60;;;;;;4227335;28;20464;-56
2021/11/05 01:31:52;;;;;;;1.65;1.30;;;15.30;91.70;;;;;;4227083;28;20070;-57
2021/11/05 01:34:16;;;;;;;2.45;1.25;;;15.20;91.70;;;;;;4226753;28;20573;-57
2021/11/05 01:36:38;;;;;;;2.22;1.90;;;15.30;91.70;;;;;;4226949;28;20047;-57
2021/11/05 01:39:00;;;;;;;1.30;1.17;;;15.30;91.70;;;;;;4227358;28;20051;-57
2021/11/05 01:41:22;;;;;;;1.90;1.70;;;15.30;91.80;;;;;;4227216;28;20214;-57
2021/11/05 01:43:47;;;;;;;2.25;1.40;;;15.30;91.70;;;;;;4227447;28;20044;-57
2021/11/05 01:46:09;;;;;;;3.53;1.70;;;15.20;91.60;;;;;;4227299;28;20096;-56
2021/11/05 01:48:31;;;;;;;2.85;1.55;;;15.30;91.80;;;;;;4226906;28;20134;-57
2021/11/05 01:50:55;;;;;;;1.30;1.20;;;15.20;91.80;;;;;;4226878;28;20044;-57
2021/11/05 01:53:18;;;;;;;1.40;1.30;;;15.20;91.80;;;;;;4226841;28;20116;-56
2021/11/05 01:55:41;;;;;;;1.98;1.17;;;15.20;91.80;;;;;;4227191;28;20052;-56
2021/11/05 01:58:03;;;;;;;2.47;1.42;;;15.20;91.80;;;;;;4227191;28;20490;-56
2021/11/05 02:00:28;;;;;;;1.38;1.20;;;15.20;91.80;;;;;;4227002;28;20488;-57
2021/11/05 02:02:51;;;;;;;4.00;1.30;;;15.20;91.70;;;;;;4226944;28;20048;-55
2021/11/05 02:05:15;;;;;;;1.85;1.27;;;15.20;91.90;;;;;;4226712;28;20417;-57
2021/11/05 02:07:39;;;;;;;1.35;1.17;;;15.20;91.90;;;;;;4226709;28;20040;-57
2021/11/05 02:10:03;;;;;;;1.35;0.90;;;15.20;91.70;;;;;;4226913;28;20044;-57
2021/11/05 02:12:26;;;;;;;2.65;1.35;;;15.10;91.80;;;;;;4226825;28;20079;-56
2021/11/05 02:14:49;;;;;;;3.38;1.20;;;15.10;91.90;;;;;;4226754;28;20451;-57
2021/11/05 02:17:11;;;;;;;2.25;1.10;;;15.20;91.80;;;;;;4226243;28;20044;-58
2021/11/05 02:19:35;;;;;;;3.08;1.10;;;15.10;91.90;;;;;;4226723;28;20118;-57
2021/11/05 02:22:00;;;;;;;1.55;1.45;;;15.10;91.80;;;;;;4226767;28;20071;-56
2021/11/05 02:24:24;;;;;;;1.45;1.23;;;15.10;91.90;;;;;;4226307;28;20158;-57
2021/11/05 02:26:47;;;;;;;2.47;0.95;;;15.10;92.00;;;;;;4226186;28;20059;-57
2021/11/05 02:29:09;;;;;;;2.65;1.50;;;15.10;92.00;;;;;;4226591;28;20105;-57
2021/11/05 02:31:32;;;;;;;1.55;1.00;;;15.10;92.10;;;;;;4226258;28;20054;-57
2021/11/05 02:33:54;;;;;;;2.80;1.20;;;15.10;92.10;;;;;;4226538;28;20050;-58
2021/11/05 02:36:16;;;;;;;1.58;1.17;;;15.10;92.10;;;;;;4226325;28;20101;-56
2021/11/05 02:38:40;;;;;;;1.33;1.23;;;15.10;92.40;;;;;;4226190;28;20075;-57
2021/11/05 02:41:04;;;;;;;1.40;1.30;;;15.10;92.00;;;;;;4225933;28;20092;-56
2021/11/05 02:43:27;;;;;;;1.70;0.98;;;15.10;92.10;;;;;;4210686;28;20046;-57
2021/11/05 02:45:53;;;;;;;1.40;1.30;;;15.10;92.10;;;;;;4210924;28;20059;-56
2021/11/05 02:48:15;;;;;;;1.75;0.98;;;15.10;92.00;;;;;;4225469;28;20043;-56
2021/11/05 02:50:37;;;;;;;1.33;1.10;;;15.10;92.00;;;;;;4226214;28;20048;-57
2021/11/05 02:53:02;;;;;;;2.13;0.98;;;15.20;92.30;;;;;;4225919;28;20134;-55
2021/11/05 02:55:26;;;;;;;1.05;1.00;;;15.30;92.20;;;;;;4225838;28;20058;-56
2021/11/05 02:57:48;;;;;;;2.30;1.70;;;15.30;92.30;;;;;;4209032;28;20058;-57
2021/11/05 03:00:12;;;;;;;2.55;1.00;;;15.40;91.90;;;;;;4216546;28;20048;-57
2021/11/05 03:02:34;;;;;;;3.08;1.20;;;15.40;91.90;;;;;;4225670;28;20417;-57
2021/11/05 03:04:56;;;;;;;1.58;1.00;;;15.50;91.70;;;;;;4224317;28;20058;-56
2021/11/05 03:07:18;;;;;;;2.15;1.38;;;15.50;91.60;;;;;;4225522;28;20154;-57
2021/11/05 03:09:42;;;;;;;4.13;1.40;;;15.50;91.50;;;;;;4225615;28;20039;-56
2021/11/05 03:12:06;;;;;;;1.80;1.30;;;15.50;91.40;;;;;;4225647;28;20047;-57
2021/11/05 03:14:29;;;;;;;2.40;1.20;;;15.60;91.40;;;;;;4225246;28;20779;-57
2021/11/05 03:16:51;;;;;;;1.08;0.77;;;15.60;91.40;;;;;;4225777;28;20039;-57
2021/11/05 03:19:13;;;;;;;3.13;1.10;;;15.50;91.40;;;;;;4225278;28;20051;-57
2021/11/05 03:21:36;;;;;;;4.93;1.30;;;15.50;91.40;;;;;;4224733;28;20100;-57
2021/11/05 03:23:58;;;;;;;1.33;1.13;;;15.50;91.40;;;;;;4224778;28;20050;-56
2021/11/05 03:26:21;;;;;;;0.95;0.95;;;15.50;91.40;;;;;;4225993;28;20061;-55
2021/11/05 03:28:44;;;;;;;1.80;1.20;;;15.50;91.40;;;;;;4225484;28;20605;-56
2021/11/05 03:31:06;;;;;;;1.35;0.90;;;15.50;91.40;;;;;;4225339;28;20043;-57
2021/11/05 03:33:28;;;;;;;1.70;1.17;;;15.50;91.40;;;;;;4225579;28;20047;-57
2021/11/05 03:35:51;;;;;;;2.22;0.85;;;15.40;91.20;;;;;;4225412;28;20047;-55
2021/11/05 03:38:13;;;;;;;2.25;1.00;;;15.40;91.20;;;;;;4225345;28;20416;-56
2021/11/05 03:40:36;;;;;;;1.55;1.13;;;15.40;91.00;;;;;;4220592;28;20124;-57
2021/11/05 03:42:58;;;;;;;1.33;1.17;;;15.40;91.00;;;;;;4224057;28;20462;-57
2021/11/05 03:45:22;;;;;;;5.40;1.10;;;15.30;91.00;;;;;;4193137;28;20040;-57
2021/11/05 03:47:44;;;;;;;1.08;1.02;;;15.30;90.80;;;;;;4191579;28;20040;-56
2021/11/05 03:50:07;;;;;;;2.20;1.25;;;15.30;91.00;;;;;;4191575;28;20048;-57
2021/11/05 03:52:29;;;;;;;1.02;0.93;;;15.30;91.00;;;;;;4191446;28;20118;-57
2021/11/05 03:54:51;;;;;;;1.23;1.00;;;15.30;91.50;;;;;;4191753;28;20070;-57
2021/11/05 03:57:13;;;;;;;2.17;1.10;;;15.40;91.60;;;;;;4191334;28;20056;-57
2021/11/05 03:59:35;;;;;;;1.13;1.00;;;15.40;91.40;;;;;;4202843;28;20550;-57
2021/11/05 04:01:59;;;;;;;1.33;0.95;;;15.50;91.40;;;;;;4208118;28;20494;-58
2021/11/05 04:04:21;;;;;;;2.10;1.13;;;15.50;91.30;;;;;;4208496;28;20517;-56
2021/11/05 04:06:43;;;;;;;1.65;0.95;;;15.60;91.30;;;;;;4209524;28;20131;-57
2021/11/05 04:09:05;;;;;;;1.83;1.00;;;15.60;91.20;;;;;;4207906;28;20068;-56
2021/11/05 04:11:27;;;;;;;0.82;0.80;;;15.60;91.20;;;;;;4224627;28;20065;-58
2021/11/05 04:13:50;;;;;;;2.25;1.15;;;15.60;91.20;;;;;;4209388;28;20036;-57
2021/11/05 04:16:13;;;;;;;1.17;0.80;;;15.60;91.20;;;;;;4209297;28;20105;-57
2021/11/05 04:18:37;;;;;;;3.33;0.95;;;15.60;91.10;;;;;;4224313;28;20067;-57
2021/11/05 04:20:59;;;;;;;2.33;0.95;;;15.60;91.10;;;;;;4224758;28;20401;-58
2021/11/05 04:23:22;;;;;;;2.90;1.40;;;15.60;91.10;;;;;;4224871;28;20413;-55
2021/11/05 04:25:44;;;;;;;2.60;0.93;;;15.60;91.10;;;;;;4224789;28;20414;-55
2021/11/05 04:28:06;;;;;;;2.95;0.90;;;15.60;91.00;;;;;;4224353;28;20494;-56
2021/11/05 04:30:28;;;;;;;1.88;1.00;;;15.70;91.00;;;;;;4224460;28;20082;-57
2021/11/05 04:32:50;;;;;;;2.50;1.00;;;15.70;90.90;;;;;;4223541;28;20048;-55
2021/11/05 04:35:13;;;;;;;2.05;1.13;;;15.70;90.90;;;;;;4224322;28;20063;-57
2021/11/05 04:37:36;;;;;;;1.13;0.82;;;15.70;90.80;;;;;;4224363;28;20493;-57
2021/11/05 04:39:58;;;;;;;1.38;0.70;;;15.70;90.80;;;;;;4207316;28;20097;-56
2021/11/05 04:42:20;;;;;;;1.25;0.95;;;15.70;90.80;;;;;;4207352;28;20050;-57
2021/11/05 04:44:42;;;;;;;0.73;0.60;;;15.70;90.90;;;;;;4207581;28;20131;-57
2021/11/05 04:47:04;;;;;;;1.15;0.90;;;15.70;90.80;;;;;;4207589;28;20542;-56
2021/11/05 04:49:26;;;;;;;1.30;0.70;;;15.70;90.80;;;;;;4207511;28;20036;-57
2021/11/05 04:51:51;;;;;;;1.38;0.85;;;15.70;90.80;;;;;;4190758;28;20419;-57
2021/11/05 04:54:13;;;;;;;2.30;1.02;;;15.70;90.70;;;;;;4191119;28;20102;-57
2021/11/05 04:56:35;;;;;;;1.50;0.95;;;15.70;90.80;;;;;;4204708;28;20040;-57
2021/11/05 04:58:57;;;;;;;3.67;1.10;;;15.70;90.90;;;;;;4208630;28;20048;-57
2021/11/05 05:01:19;;;;;;;2.10;0.90;;;15.70;90.80;;;;;;4207649;28;20043;-58
2021/11/05 05:03:41;;;;;;;2.65;1.40;;;15.70;90.70;;;;;;4207654;28;20441;-57
2021/11/05 05:06:04;;;;;;;3.28;0.90;;;15.70;90.70;;;;;;4224374;28;20057;-57
2021/11/05 05:08:27;;;;;;;1.40;0.95;;;15.80;90.60;;;;;;4224119;28;20059;-58
2021/11/05 05:10:50;;;;;;;2.75;1.02;;;15.80;90.40;;;;;;4224257;28;20481;-57
2021/11/05 05:13:11;;;;;;;2.05;0.75;;;15.80;90.40;;;;;;4224167;28;20052;-57
2021/11/05 05:15:34;;;;;;;1.75;1.02;;;15.80;90.30;;;;;;4223991;28;20047;-57
2021/11/05 05:17:56;;;;;;;1.23;0.55;;;15.80;90.40;;;;;;4223974;28;20047;-57
2021/11/05 05:20:19;;;;;;;1.02;0.57;;;15.80;90.50;;;;;;4224054;28;20143;-57
2021/11/05 05:22:42;;;;;;;2.13;0.80;;;15.80;90.40;;;;;;4223978;28;20043;-56
2021/11/05 05:25:07;;;;;;;2.35;0.90;;;15.80;90.40;;;;;;4224508;28;20048;-57
2021/11/05 05:27:30;;;;;;;1.55;0.77;;;15.80;90.30;;;;;;4223779;28;20059;-56
2021/11/05 05:29:52;;;;;;;3.60;1.25;;;15.80;90.40;;;;;;4224030;28;20087;-57
2021/11/05 05:32:14;;;;;;;3.65;0.70;;;15.80;90.30;;;;;;4208282;28;20052;-55
2021/11/05 05:34:36;;;;;;;0.80;0.57;;;15.80;90.30;;;;;;4208463;28;20129;-57
2021/11/05 05:36:58;;;;;;;2.03;1.23;;;15.80;90.30;;;;;;4207649;28;20132;-57
2021/11/05 05:39:21;;;;;;;2.90;1.20;;;15.80;90.40;;;;;;4224081;28;20044;-57
2021/11/05 05:41:44;;;;;;;1.13;0.80;;;15.80;90.40;;;;;;4223878;28;20054;-58
2021/11/05 05:44:06;;;;;;;1.13;0.90;;;15.80;90.30;;;;;;4226096;28;20054;-58
2021/11/05 05:46:28;;;;;;;2.80;0.80;;;15.80;90.40;;;;;;4227002;28;20410;-58
2021/11/05 05:48:50;;;;;;;1.92;0.60;;;15.80;90.40;;;;;;4226165;28;20509;-58
2021/11/05 05:51:12;;;;;;;1.30;0.77;;;15.80;90.40;;;;;;4211619;28;20079;-57
2021/11/05 05:53:34;;;;;;;2.42;1.05;;;15.80;90.30;;;;;;4210048;28;20067;-57
2021/11/05 05:55:56;;;;;;;1.45;0.80;;;15.80;90.10;;;;;;4210148;28;20113;-56
2021/11/05 05:58:20;;;;;;;1.33;0.85;;;15.90;90.00;;;;;;4226848;28;20415;-58
2021/11/05 06:00:42;;;;;;;1.50;1.05;;;15.90;89.80;;;;;;4226681;28;20050;-58
2021/11/05 06:03:05;;;;;;;4.07;1.63;;;16.00;90.00;;;;;;4227076;27;20051;-58
2021/11/05 06:05:28;;;;;;;2.10;0.55;;;15.90;90.10;;;;;;4226859;28;20043;-58
2021/11/05 06:07:50;;;;;;;0.90;0.45;;;15.90;90.00;;;;;;4194707;28;20634;-58
2021/11/05 06:10:12;;;;;;;0.80;0.65;;;16.00;90.40;;;;;;4193216;28;20109;-58
2021/11/05 06:12:34;;;;;;;1.95;0.90;;;15.90;90.10;;;;;;4204576;28;20813;-58
2021/11/05 06:14:58;;;;;;;1.60;0.80;;;15.90;90.00;;;;;;4209958;28;20410;-59
2021/11/05 06:17:20;;;;;;;3.05;1.10;;;15.90;90.00;;;;;;4211014;28;20056;-58
2021/11/05 06:19:43;;;;;;;2.17;0.98;;;15.90;90.10;;;;;;4211135;28;20048;-57
2021/11/05 06:22:05;;;;;;;1.38;0.70;;;15.90;90.10;;;;;;4211158;28;20510;-58
2021/11/05 06:24:27;;;;;;;2.80;0.90;;;15.90;90.10;;;;;;4209469;28;20614;-58
2021/11/05 06:26:50;;;;;;;2.13;1.00;;;15.80;90.10;;;;;;4209547;28;20036;-58
2021/11/05 06:29:13;;;;;;;1.05;0.90;;;15.80;90.10;;;;;;4226124;28;20055;-58
2021/11/05 06:31:36;;;;;;;0.93;0.40;;;15.80;90.00;;;;;;4226653;28;20484;-57
2021/11/05 06:33:59;;;;;;;0.65;0.65;;;15.80;90.10;;;;;;4226389;28;20044;-56
2021/11/05 06:36:21;;;;;;;2.20;0.70;;;15.80;90.20;;;;;;4225993;28;20056;-58
2021/11/05 06:38:43;;;;;;;1.48;0.57;;;15.80;90.10;;;;;;4210999;28;20047;-58
2021/11/05 06:41:11;;;;;;;0.73;0.65;;;15.80;90.10;;;;;;4211096;28;20058;-58
2021/11/05 06:43:34;;;;;;;2.30;0.88;;;15.80;90.10;;;;;;4225791;28;20133;-57
2021/11/05 06:45:56;;;;;;;0.98;0.80;;;15.80;90.10;;;;;;4225449;28;20051;-57
2021/11/05 06:48:20;;;;;;;2.58;1.00;;;15.90;89.80;;;;;;4225761;28;20055;-56
2021/11/05 06:50:42;;;;;;;1.23;0.85;;;15.90;89.50;;;;;;4226260;28;20063;-57
2021/11/05 06:53:04;;;;;;;1.58;0.90;;;15.90;89.60;;;;;;4209199;28;20509;-57
2021/11/05 06:55:27;;;;;;;5.68;1.10;;;15.90;89.30;;;;;;4191370;28;20555;-57
2021/11/05 06:57:49;;;;;;;2.90;0.80;;;15.90;89.40;;;;;;4192302;28;20045;-57
2021/11/05 07:00:12;;;;;;;2.03;0.90;;;15.90;89.50;;;;;;4202123;28;20405;-56
2021/11/05 07:02:40;;;;;;;1.90;0.80;;;15.90;89.20;;;;;;4225668;28;20513;-56
2021/11/05 07:05:04;;;;;;;2.85;0.70;;;15.90;89.70;;;;;;4225188;28;20126;-56
2021/11/05 07:07:26;;;;;;;2.05;0.88;;;16.00;90.10;;;;;;4209708;28;20055;-57
2021/11/05 07:09:47;;;;;;;5.55;1.08;;;16.00;90.10;;;;;;4209198;28;20704;-57
2021/11/05 07:12:10;;;;;;;3.00;0.95;;;16.00;90.00;;;;;;4226027;28;20040;-56
2021/11/05 07:14:31;;;;;;;1.70;0.70;;;16.10;90.00;;;;;;4208786;28;20117;-56
2021/11/05 07:16:54;;;;;;;1.20;0.63;;;16.10;90.10;;;;;;4208151;28;20047;-56
2021/11/05 07:19:18;;;;;;;0.73;0.50;;;16.10;90.10;;;;;;4207854;28;20134;-57
2021/11/05 07:21:42;;;;;;;2.25;1.10;;;16.00;90.10;;;;;;4225314;28;20059;-56
2021/11/05 07:24:05;;;;;;;2.10;0.50;;;16.00;90.50;;;;;;4225606;28;20122;-55
2021/11/05 07:26:33;;;;;;;2.97;1.05;;;16.00;90.20;;;;;;4208560;28;20101;-56
2021/11/05 07:28:55;;;;;;;2.17;1.05;;;15.90;90.20;;;;;;4208259;28;20549;-56
2021/11/05 07:31:18;;;;;;;2.28;0.73;;;15.90;90.30;;;;;;4213404;28;20488;-55
2021/11/05 07:33:40;;;;;;;2.72;0.73;;;15.80;90.30;;;;;;4225660;28;20457;-56
2021/11/05 07:36:03;;;;;;;4.72;0.90;;;15.80;90.40;;;;;;4210084;28;20044;-56
2021/11/05 07:38:26;;;;;;;1.50;0.70;;;15.80;90.60;;;;;;4225380;28;20048;-57
2021/11/05 07:40:48;;;;;;;0.73;0.70;;;15.80;90.60;;;;;;4225480;28;20097;-57
2021/11/05 07:43:11;;;;;;;1.92;0.70;;;15.70;90.60;;;;;;4225272;28;20093;-54
2021/11/05 07:45:33;;;;;;;0.52;0.52;;;15.70;90.70;;;;;;4225374;28;20486;-56
2021/11/05 07:47:56;;;;;;;4.18;1.00;;;15.70;90.80;;;;;;4224754;28;20124;-55
2021/11/05 07:50:20;;;;;;;1.05;0.80;;;15.70;90.90;;;;;;4222409;28;20154;-57
2021/11/05 07:52:42;;;;;;;6.25;0.85;;;15.90;90.90;;;;;;4210108;28;20040;-56
2021/11/05 07:55:07;;;;;;;1.38;0.85;;;16.20;90.50;;;;;;4209617;28;20040;-54
2021/11/05 07:57:30;;;;;;;2.55;0.50;;;16.60;89.50;;;;;;4225076;28;21568;-56
2021/11/05 07:59:52;;;;;;;0.85;0.70;;;17.10;87.80;;;;;;4215792;28;20547;-56
2021/11/05 08:02:15;;;;;;;1.67;0.80;;;17.50;85.80;;;;;;4224766;28;20108;-57
2021/11/05 08:04:37;;;;;;;3.80;0.93;;;18.00;83.80;;;;;;4224898;28;20071;-56
2021/11/05 08:07:00;;;;;;;3.58;0.68;;;18.30;82.00;;;;;;4224825;28;20047;-58
2021/11/05 08:09:22;;;;;;;4.63;1.52;;;18.60;80.30;;;;;;4224952;28;20047;-53
2021/11/05 08:11:45;;;;;;;0.65;0.65;;;18.80;80.30;;;;;;4224683;28;20051;-56
2021/11/05 08:14:07;;;;;;;3.30;0.88;;;18.80;78.70;;;;;;4224497;28;20040;-56
2021/11/05 08:16:29;;;;;;;1.00;0.85;;;18.80;78.60;;;;;;4224649;28;20055;-55
2021/11/05 08:18:52;;;;;;;2.13;0.63;;;18.80;78.90;;;;;;4224693;28;20736;-58
2021/11/05 08:21:14;;;;;;;1.95;0.80;;;18.60;79.10;;;;;;4224501;28;20564;-56
2021/11/05 08:23:37;;;;;;;2.08;0.93;;;18.50;79.60;;;;;;4224649;28;20150;-56
2021/11/05 08:25:59;;;;;;;1.02;0.95;;;18.40;80.10;;;;;;4224779;28;20489;-57
2021/11/05 08:28:25;;;;;;;6.13;1.25;;;18.30;80.80;;;;;;4224851;28;20550;-57
2021/11/05 08:30:48;;;;;;;3.90;0.95;;;18.30;80.80;;;;;;4207554;28;20044;-57
2021/11/05 08:33:11;;;;;;;2.10;0.95;;;18.30;80.80;;;;;;4215155;28;20047;-57
2021/11/05 08:35:33;;;;;;;2.15;0.93;;;18.30;80.90;;;;;;4223898;28;20130;-55
2021/11/05 08:37:56;;;;;;;2.47;0.90;;;18.30;81.00;;;;;;4223803;28;20490;-53
2021/11/05 08:40:18;;;;;;;3.03;0.90;;;18.20;81.10;;;;;;4224308;28;20048;-56
2021/11/05 08:42:42;;;;;;;2.40;0.93;;;18.20;81.40;;;;;;4223394;28;20048;-56
2021/11/05 08:45:08;;;;;;;1.40;0.60;;;18.10;81.70;;;;;;4215167;28;20040;-57
2021/11/05 08:47:29;;;;;;;1.75;0.88;;;18.10;82.00;;;;;;4207437;28;20116;-57
2021/11/05 08:49:53;;;;;;;2.60;1.20;;;18.00;83.30;;;;;;4190979;28;20048;-56
2021/11/05 08:52:15;;;;;;;1.13;0.88;;;18.00;82.70;;;;;;4190896;28;20049;-57
2021/11/05 08:54:37;;;;;;;2.10;0.75;;;18.00;82.60;;;;;;4193362;28;20622;-55
2021/11/05 08:57:00;;;;;;;0.85;0.80;;;18.00;82.50;;;;;;4209050;28;20050;-59
2021/11/05 08:59:25;;;;;;;2.35;0.70;;;18.00;82.50;;;;;;4216894;28;20047;-56
2021/11/05 09:01:49;;;;;;;1.88;0.52;;;17.90;82.60;;;;;;4195125;28;20059;-57
2021/11/05 09:04:12;;;;;;;0.88;0.88;;;17.90;82.90;;;;;;4209836;28;20701;-57
2021/11/05 09:06:35;;;;;;;3.03;0.70;;;17.80;83.40;;;;;;4207472;28;20163;-57
2021/11/05 09:09:00;;;;;;;2.28;0.82;;;17.90;83.40;;;;;;4208778;28;20040;-57
2021/11/05 09:11:22;;;;;;;0.80;0.70;;;18.00;83.10;;;;;;4207483;28;20489;-58
2021/11/05 09:13:44;;;;;;;1.95;0.82;;;18.10;83.00;;;;;;4190259;28;20743;-57
2021/11/05 09:16:06;;;;;;;2.53;0.85;;;18.10;82.90;;;;;;4190708;28;20433;-57
2021/11/05 09:18:30;;;;;;;2.47;0.80;;;18.10;82.80;;;;;;4191615;28;20094;-58
2021/11/05 09:20:53;;;;;;;3.42;0.93;;;18.10;83.20;;;;;;4194314;28;20433;-59
2021/11/05 09:23:15;;;;;;;1.15;0.57;;;18.10;82.50;;;;;;4191532;28;20052;-57
2021/11/05 09:25:37;;;;;;;0.88;0.80;;;18.00;82.60;;;;;;4210133;28;20048;-58
2021/11/05 09:28:00;;;;;;;3.42;0.90;;;18.00;82.80;;;;;;4200276;28;20044;-56
2021/11/05 09:30:23;;;;;;;3.13;1.08;;;17.90;82.90;;;;;;4210966;28;20409;-58
2021/11/05 09:32:45;;;;;;;2.03;0.93;;;17.80;83.20;;;;;;4210682;28;20048;-57
2021/11/05 09:35:09;;;;;;;2.55;0.90;;;17.80;84.60;;;;;;4210752;28;20074;-58
2021/11/05 09:37:32;;;;;;;1.88;1.00;;;17.80;83.90;;;;;;4210549;28;20556;-57
2021/11/05 09:39:53;;;;;;;1.13;0.80;;;17.80;83.90;;;;;;4227121;28;20051;-59
2021/11/05 09:42:16;;;;;;;1.08;0.90;;;17.80;83.90;;;;;;4227118;28;20051;-59
2021/11/05 09:44:39;;;;;;;0.80;0.80;;;17.80;84.00;;;;;;4227170;28;20043;-59
2021/11/05 09:47:04;;;;;;;1.70;1.00;;;17.70;84.20;;;;;;4212559;28;20413;-58
2021/11/05 09:49:26;;;;;;;2.92;1.23;;;17.80;84.40;;;;;;4210817;28;20705;-59
2021/11/05 09:51:50;;;;;;;2.67;0.82;;;17.80;84.30;;;;;;4226569;28;20046;-59
2021/11/05 09:54:17;;;;;;;3.30;1.20;;;17.90;84.00;;;;;;4226186;28;20122;-59
2021/11/05 09:56:39;;;;;;;1.45;0.75;;;17.90;83.80;;;;;;4226497;28;20044;-58
2021/11/05 09:59:01;;;;;;;1.70;0.57;;;17.90;83.60;;;;;;4210064;28;20074;-58
2021/11/05 10:01:23;;;;;;;0.68;0.68;;;17.90;83.60;;;;;;4210370;28;20044;-58
2021/11/05 10:03:45;;;;;;;2.25;0.80;;;17.90;83.60;;;;;;4209430;28;20051;-58
2021/11/05 10:06:08;;;;;;;0.88;0.70;;;17.80;84.50;;;;;;4210085;28;20078;-59
2021/11/05 10:08:33;;;;;;;2.75;0.82;;;17.80;83.90;;;;;;4209716;28;20048;-59
2021/11/05 10:10:56;;;;;;;3.22;0.60;;;17.70;84.10;;;;;;4209951;28;20048;-59
2021/11/05 10:13:23;;;;;;;1.45;0.73;;;17.70;84.60;;;;;;4209751;28;20068;-59
2021/11/05 10:15:46;;;;;;;2.15;0.70;;;17.80;84.30;;;;;;4210047;28;20127;-58
2021/11/05 10:18:16;;;;;;;3.22;1.20;;;17.90;83.70;;;;;;4226175;28;20063;-58
2021/11/05 10:20:38;;;;;;;2.17;0.52;;;17.90;83.10;;;;;;4226741;28;20409;-59
2021/11/05 10:23:03;;;;;;;1.85;0.50;;;18.00;83.10;;;;;;4226407;28;20044;-59
2021/11/05 10:25:28;;;;;;;2.80;0.60;;;18.00;83.00;;;;;;4225531;28;20124;-59
2021/11/05 10:28:07;;;;;;;0.85;0.50;;;17.90;82.90;;;;;;4209814;28;20572;-59
2021/11/05 10:30:30;;;;;;;2.00;0.50;;;17.90;82.70;;;;;;4208019;28;20051;-59
2021/11/05 10:32:56;;;;;;;0.77;0.40;;;17.80;83.20;;;;;;4193931;28;20048;-59
2021/11/05 10:35:21;;;;;;;3.53;0.52;;;17.70;83.20;;;;;;4192976;28;20059;-59
2021/11/05 10:37:43;;;;;;;2.70;0.82;;;17.70;83.80;;;;;;4209295;28;20056;-59
2021/11/05 10:40:07;;;;;;;3.30;0.52;;;17.60;83.90;;;;;;4210602;28;20044;-58
2021/11/05 10:42:33;;;;;;;1.52;0.47;;;17.50;84.00;;;;;;4210898;28;20080;-58
2021/11/05 10:45:11;;;;;;;2.92;0.43;;;17.40;84.20;;;;;;4226170;28;20136;-58
2021/11/05 10:47:33;;;;;;;3.03;0.60;;;17.40;83.80;;;;;;4226049;28;20489;-58
2021/11/05 10:50:11;;;;;;;2.42;0.47;;;17.40;85.20;;;;;;4226171;28;20125;-59
2021/11/05 10:52:33;;;;;;;2.35;0.40;;;17.50;84.50;;;;;;4225720;28;20071;-59
2021/11/05 10:54:57;;;;;;;2.17;0.68;;;17.50;85.00;;;;;;4225875;28;20070;-57
2021/11/05 10:57:40;;;;;;;2.03;0.57;;;17.60;84.40;;;;;;4226124;28;20074;-59
2021/11/05 11:00:22;;;;;;;2.45;0.70;;;17.60;82.60;;;;;;4225681;28;20447;-58
2021/11/05 11:02:44;;;;;;;1.75;0.57;;;17.70;82.20;;;;;;4210160;28;20055;-59
2021/11/05 11:05:29;;;;;;;1.00;0.45;;;17.60;84.00;;;;;;4206391;28;20605;-59
2021/11/05 11:07:51;;;;;;;0.63;0.45;;;17.50;84.10;;;;;;4208860;28;20486;-59
2021/11/05 11:10:28;;;;;;;1.90;0.60;;;17.50;84.30;;;;;;4210092;28;20430;-59
2021/11/05 11:12:52;;;;;;;1.67;0.30;;;17.40;84.00;;;;;;4208688;28;20055;-58
2021/11/05 11:15:32;;;;;;;1.48;0.70;;;17.30;84.90;;;;;;4208373;28;20052;-58
2021/11/05 11:17:56;;;;;;;2.42;0.80;;;17.40;85.30;;;;;;4208492;28;20051;-58
2021/11/05 11:20:29;;;;;;;1.20;0.40;;;17.40;85.50;;;;;;4225823;28;20127;-56
2021/11/05 11:22:51;;;;;;;1.48;0.40;;;17.50;85.10;;;;;;4225417;28;20048;-57
2021/11/05 11:25:14;;;;;;;1.45;0.50;;;17.50;85.20;;;;;;4223951;28;20545;-57
2021/11/05 11:27:36;;;;;;;1.83;0.60;;;17.50;85.10;;;;;;4225744;28;20509;-58
2021/11/05 11:30:00;;;;;;;1.45;0.45;;;17.50;85.10;;;;;;4225492;28;20052;-58
2021/11/05 11:32:23;;;;;;;1.20;0.70;;;17.50;84.60;;;;;;4225509;28;20050;-58
2021/11/05 11:34:47;;;;;;;0.93;0.30;;;17.50;85.10;;;;;;4223227;28;20047;-55
2021/11/05 11:37:10;;;;;;;1.23;0.55;;;17.50;85.00;;;;;;4208434;28;20048;-58
2021/11/05 11:39:33;;;;;;;0.95;0.32;;;17.40;85.10;;;;;;4208308;28;20063;-58
2021/11/05 11:42:00;;;;;;;0.82;0.32;;;17.40;85.50;;;;;;4225143;28;20136;-58
2021/11/05 11:44:25;;;;;;;1.75;0.60;;;17.30;85.50;;;;;;4225020;28;20481;-58
2021/11/05 11:46:56;;;;;;;1.15;0.30;;;17.30;85.30;;;;;;4225278;28;20047;-58
2021/11/05 11:49:33;;;;;;;2.17;0.35;;;17.30;85.50;;;;;;4224734;28;20048;-57
2021/11/05 11:51:56;;;;;;;0.93;0.50;;;17.20;85.30;;;;;;4208232;28;20570;-58
2021/11/05 11:54:31;;;;;;;1.63;0.40;;;17.20;86.10;;;;;;4207965;28;20521;-58
2021/11/05 11:56:54;;;;;;;3.63;0.80;;;17.10;85.40;;;;;;4224575;28;20051;-58
2021/11/05 11:59:18;;;;;;;1.98;0.60;;;17.10;86.80;;;;;;4225059;28;20489;-58
2021/11/05 12:01:42;;;;;;;1.35;0.55;;;17.00;86.60;;;;;;4225089;28;20511;-58
2021/11/05 12:04:08;;;;;;;2.28;0.40;;;17.00;86.90;;;;;;4225114;28;20047;-58
2021/11/05 12:07:00;;;;;;;1.08;0.60;;;16.90;87.10;;;;;;4224406;28;20048;-60
2021/11/05 12:09:24;;;;;;;0.47;0.30;;;16.90;87.50;;;;;;4220209;28;20047;-58
2021/11/05 12:11:46;;;;;;;1.02;0.38;;;16.80;88.00;;;;;;4224797;28;20056;-58
2021/11/05 12:14:10;;;;;;;1.33;0.45;;;16.80;88.30;;;;;;4224455;28;20459;-58
2021/11/05 12:16:33;;;;;;;2.95;0.82;;;16.80;88.70;;;;;;4224855;28;20039;-59
2021/11/05 12:19:18;;;;;;;2.35;0.55;;;16.70;89.30;;;;;;4223565;28;20492;-58
2021/11/05 12:21:44;;;;;;;1.20;0.60;;;16.70;88.30;;;;;;4210412;28;20051;-57
2021/11/05 12:24:26;;;;;;;1.10;0.60;;;16.70;88.60;;;;;;4224576;28;20420;-59
2021/11/05 12:26:50;;;;;;;1.92;0.90;;;16.60;87.50;;;;;;4220065;28;20055;-58
2021/11/05 12:30:09;;;;;;;0.95;0.70;;;16.60;86.50;;;;;;4209406;28;20052;-59